Villa Karen, Puerto Rico
Current Conditions -  °F | °C
As of 7:50 PM on Thursday 18 Dec 2014 (Local Time) from TJBQ Reporting Station
Broken Clouds Broken Clouds  
Wind Chill: 72°   Ceiling: 5500
Heat Index: NA   Visibility: 10mi
Dew Point: 75°   Wind: 5mph
Humidity: NA   Direction: 150°SSE
Pressure: 30.02"   Gusts: NA
Location:  18.4951°N, 67.0273°W
Report Text: TJBQ 182350Z 15004KT 10SM SCT019 SCT038 BKN055 22/24 A3002 RMK RWY08 ATIS D
Loading
Personal Weather Stations






























Interactive Weather Map New forecast layout! Learn more

10-Day Weather Forecast

Advertisements
Track Severe Weather on mobile